Estación Meteorológica Peña el Pijo (Robertgarden) [ 12/14/19 08:41:22 CET ]

Fecha Hora Presion(HPa) Temp (°C) Humedad % Rocio (°C) Viento ( m/s) Direccion Lluvia 1Hora(mm) Lluvia 24H(mm) LLuvia Total(mm)
2019-Nov-09 01:01:43 1009.400 4.2 70 -0.8         22.27
2019-Nov-09 02:03:14 1009.600 3.8 71 -1.0         22.27
2019-Nov-09 03:01:36 1009.900 3.3 72 -1.3         22.27
2019-Nov-09 04:01:55 1009.400 2.1 74 -2.1         22.27
2019-Nov-09 05:01:42 1008.800 0.8 78 -2.6         22.27
2019-Nov-09 06:01:51 1009.500 0.9 79 -2.4         22.27
2019-Nov-09 07:01:44 1009.200 -0.1 80 -3.1         22.27
2019-Nov-09 08:01:34 1010.000 -0.4 81 -3.2         22.27
2019-Nov-09 09:01:43 1010.000 3.2 82 0.4         22.27
2019-Nov-09 10:01:47 1010.500 8.1 66 2.1         22.27
2019-Nov-09 11:01:41 1010.000 10.8 49 0.5         22.27
2019-Nov-09 12:01:48 1009.600 13.7 38 -0.4         22.27
2019-Nov-09 13:01:43 1008.900 15.3 27 -3.8 3.3 NW     22.27
2019-Nov-09 14:01:38 1008.300 15.3 25 -4.8 3.3 NE     22.27
2019-Nov-09 15:01:59 1007.700 15.3 22 -6.5         22.27
2019-Nov-09 16:01:54 1007.200 14.1 25 -5.9         22.27
2019-Nov-09 17:01:58 1007.600 12.5 32 -3.8         22.27
2019-Nov-09 18:01:46 1007.500 10.8 36 -3.8 1.8 N     22.27
2019-Nov-09 19:01:51 1007.800 9.5 41 -3.1         22.27
2019-Nov-09 20:01:50 1008.500 7.8 58 0.0         22.27
2019-Nov-09 21:01:55 1007.500 6.5 68 1.0         22.27
2019-Nov-09 22:01:41 1006.400 6.4 75 2.3         22.27
2019-Nov-09 23:01:48 1005.500 7.2 79 3.8         22.27

Temperatura Máxima:15°    Temperatura Mínima:
Presión Máxima:1010.500 Hpa    Presión Mínima:1005.500 Hpa


Volver